Etusivu
METAR-TAF:

METAR-TAF

Lentoasemat :

Caracas, Venezuela

Leveyspiiri: 10-36N, Pituuspiiri: 066-59W, korkeus merenpinnasta: 43 m

Tämänhetkinen sää

Tämä raportti tehtiin 42 minuuttia sitten, kello 16.00 UTC
Tuuli 6 kn idästä
Lämpötila 32°C
Kosteus 71%
Ilmanpaine 1013 hPa
Näkyvyys 10 km tai enemmän
Muutamia pilviä 1600 ft:n korkeudessa

METAR: SVMI 131600Z 09006KT 9999 FEW016 32/26 Q1013

Aika: 12:42 (16:42 UTC)

Sääennuste

Tämä raportti tehtiin 6 tuntia ja 42 minuuttia sitten, kello 10.00 UTC
Ennuste voimassa 13. päivästä klo 12 UTC - 14. päivään klo 12 UTC
Tuuli kn pohjoisesta
Näkyvyys 10 km tai enemmän
Hajanaisia pilviä 1600 ft:n korkeudessa
Tulossa
välillä 13 ja 01 UTC
Tuuli 2 kn idästä
Näkyvyys 10 km tai enemmän
Muutamia pilviä 1600 ft:n korkeudessa

TAF: SVMI 131000Z 1312/1412 00000KT 9999 SCT016 TX25/1318Z TN22/1307Z BECMG 13014/1318 09002KT 9999 FEW016 SCT1016

Säähavainnot ja -ennusteet yli 4000 lentoasemalta (METAR- ja TAF-raportit).

Käytössä olevat sääasemat on merkitty karttaan keltaisilla ja punaisilla pisteillä.

Aseta hiiri pisteen päälle nähdäksesi sääaseman nimen.

Klikkaa sitten nähdäksesi säähavainnot ja -ennusteet.

Kartan vaihtaminen: klikkaa mustalla rastilla varustettuja vihreitä pisteitä, niin voit zoomata sisään; viivalla varustettua vihreää pistettä, niin voit zoomata ulos tai vihreitä nuolia, niin pääset viereisille kartoille.


METAR-TAF: